»·PEaware :: N1596E L70-KPSP

N1596E :: L70-KPSP

FLIGHT INFORMATION

Flight Status: Arrived
Operator: Privately registered:
United States
More flights under this callsign
Pilot: Shane P. (16837)
Aircraft: CESSNA 172 SKYHAWK
(C172)
More flights by this aircraft type
Origin: L70 Agua Dulce
United States
Destination: KPSP Palm Springs Intl
United States
More flights between these airports :: More routes between these airports
Route: +
File this flight plan on PilotEdge
Remarks:
Altitude:
(Current/Filed)
9,500ft
Speed:
(Current/Filed)
100kts
Departed: 02-Oct-17 06:05 PM
Arrived: 02-Oct-17 06:55 PM
Distance/Time
Traveled:
98nm/0:50
Distance/Time
To Go:
Arrived

Flight Plot

Page will automatically refresh every two minutes.


Map Options




Map Legend


Flown Route
Filed Route
Departure Airport
Arrival Airport
Navaid (VOR, NDB)
Fix

Horizontal Profiles

Position Reports

Time Latitude Longitude Heading Altitude Ground
Speed
02-Oct-17 17:23 34.503493 -118.314274 143 2605ft 0kts
02-Oct-17 17:24 34.503493 -118.314274 143 2605ft 0kts
02-Oct-17 17:25 34.503493 -118.314274 143 2605ft 0kts
02-Oct-17 17:26 34.503493 -118.314274 143 2605ft 0kts
02-Oct-17 17:27 34.503493 -118.314274 143 2605ft 0kts
02-Oct-17 17:28 34.503493 -118.314274 143 2605ft 0kts
02-Oct-17 17:29 34.503493 -118.314274 143 2605ft 0kts
02-Oct-17 17:30 34.503493 -118.314274 143 2605ft 0kts
02-Oct-17 17:31 34.503493 -118.314274 143 2605ft 0kts
02-Oct-17 17:32 34.503493 -118.314274 143 2605ft 0kts
02-Oct-17 17:33 34.503493 -118.314274 143 2605ft 0kts
02-Oct-17 17:34 34.503493 -118.314274 143 2605ft 0kts
02-Oct-17 17:35 34.503493 -118.314274 143 2605ft 0kts
02-Oct-17 17:36 34.503493 -118.314274 143 2605ft 0kts
02-Oct-17 17:37 34.503493 -118.314274 143 2605ft 0kts
02-Oct-17 17:38 34.503493 -118.314274 143 2605ft 0kts
02-Oct-17 17:39 34.503493 -118.314274 143 2605ft 0kts
02-Oct-17 17:40 34.503493 -118.314274 143 2605ft 0kts
02-Oct-17 17:41 34.503493 -118.314274 143 2605ft 0kts
02-Oct-17 17:42 34.503493 -118.314274 143 2605ft 0kts
02-Oct-17 17:43 34.503493 -118.314274 143 2605ft 0kts
02-Oct-17 17:44 34.503493 -118.314274 143 2605ft 0kts
02-Oct-17 17:45 34.503493 -118.314274 143 2605ft 0kts
02-Oct-17 17:46 34.503493 -118.314274 143 2605ft 0kts
02-Oct-17 17:47 34.503493 -118.314274 143 2605ft 0kts
02-Oct-17 17:48 34.503493 -118.314274 143 2605ft 0kts
02-Oct-17 17:49 34.503493 -118.314274 143 2605ft 0kts
02-Oct-17 17:50 34.503493 -118.314274 143 2605ft 0kts
02-Oct-17 17:51 34.503493 -118.314274 143 2605ft 0kts
02-Oct-17 17:52 34.503493 -118.314274 143 2605ft 0kts
02-Oct-17 17:53 34.503493 -118.314274 143 2605ft 0kts
02-Oct-17 17:54 34.503493 -118.314274 143 2605ft 0kts
02-Oct-17 17:55 34.503493 -118.314274 143 2605ft 0kts
02-Oct-17 17:56 34.503493 -118.314274 143 2605ft 0kts
02-Oct-17 17:57 34.503493 -118.314274 143 2605ft 0kts
02-Oct-17 17:58 34.503493 -118.314274 143 2605ft 0kts
02-Oct-17 17:59 34.503493 -118.314274 143 2605ft 0kts
02-Oct-17 18:00 34.503493 -118.314274 143 2605ft 0kts
02-Oct-17 18:01 34.503493 -118.314274 143 2605ft 0kts
02-Oct-17 18:02 34.503493 -118.314274 143 2605ft 0kts
02-Oct-17 18:03 34.503493 -118.314274 143 2605ft 0kts
02-Oct-17 18:04 34.503493 -118.314274 143 2605ft 0kts
02-Oct-17 18:05 34.503493 -118.314274 143 2605ft 0kts
02-Oct-17 18:06 34.503493 -118.314274 143 2605ft 0kts
02-Oct-17 18:07 34.503493 -118.314274 143 2605ft 0kts
02-Oct-17 18:09 34.503541 -118.138686 111 8675ft 99kts
02-Oct-17 18:10 34.492816 -118.107980 111 9285ft 99kts
02-Oct-17 18:11 34.481564 -118.072870 111 9481ft 119kts
02-Oct-17 18:12 34.468117 -118.036264 112 9478ft 117kts
02-Oct-17 18:13 34.459920 -117.997686 100 9447ft 122kts
02-Oct-17 18:14 34.454628 -117.957407 97 9446ft 116kts
02-Oct-17 18:15 34.451636 -117.917784 93 9416ft 120kts
02-Oct-17 18:16 34.450760 -117.877477 88 9396ft 119kts
02-Oct-17 18:17 34.449573 -117.839270 95 9497ft 116kts
02-Oct-17 18:18 34.445586 -117.798864 97 9402ft 121kts
02-Oct-17 18:19 34.440477 -117.759147 99 9465ft 119kts
02-Oct-17 18:20 34.432695 -117.719575 113 9540ft 121kts
02-Oct-17 18:21 34.417569 -117.682293 121 9521ft 126kts
02-Oct-17 18:22 34.397537 -117.646846 128 9453ft 126kts
02-Oct-17 18:23 34.375894 -117.614760 132 9524ft 122kts
02-Oct-17 18:24 34.351788 -117.584495 137 9461ft 126kts
02-Oct-17 18:25 34.326784 -117.555336 136 9432ft 126kts
02-Oct-17 18:26 34.302453 -117.525193 137 9446ft 121kts
02-Oct-17 18:27 34.276586 -117.498124 147 9418ft 123kts
02-Oct-17 18:28 34.246884 -117.474734 144 9330ft 120kts
02-Oct-17 18:29 34.220776 -117.452170 145 9411ft 125kts
02-Oct-17 18:30 34.189221 -117.439744 176 9478ft 112kts
02-Oct-17 18:31 34.157844 -117.435113 155 9623ft 111kts
02-Oct-17 18:32 34.131429 -117.409507 143 9522ft 126kts
02-Oct-17 18:33 34.104832 -117.381372 135 9477ft 125kts
02-Oct-17 18:34 34.082752 -117.348947 124 9462ft 126kts
02-Oct-17 18:35 34.068359 -117.310854 108 9482ft 125kts
02-Oct-17 18:36 34.059459 -117.270510 104 9505ft 125kts
02-Oct-17 18:37 34.051581 -117.229596 100 9521ft 125kts
02-Oct-17 18:38 34.045317 -117.188091 95 9522ft 126kts
02-Oct-17 18:39 34.039537 -117.146454 104 9520ft 126kts
02-Oct-17 18:40 34.031398 -117.105355 101 9526ft 126kts
02-Oct-17 18:41 34.022585 -117.064516 109 9538ft 125kts
02-Oct-17 18:42 34.006486 -117.027252 120 9544ft 125kts
02-Oct-17 18:43 33.992179 -116.988738 107 9554ft 125kts
02-Oct-17 18:44 33.983471 -116.948355 102 9577ft 125kts
02-Oct-17 18:45 33.974566 -116.907827 104 9576ft 126kts
02-Oct-17 18:46 33.964874 -116.866891 105 9147ft 123kts
02-Oct-17 18:47 33.954846 -116.825680 104 8333ft 130kts
02-Oct-17 18:48 33.944958 -116.784693 104 7453ft 127kts
02-Oct-17 18:49 33.935153 -116.743784 105 6536ft 126kts
02-Oct-17 18:50 33.925620 -116.704208 102 5489ft 121kts
02-Oct-17 18:51 33.917932 -116.665291 98 4827ft 114kts
02-Oct-17 18:52 33.914998 -116.626135 91 4043ft 124kts
02-Oct-17 18:53 33.911779 -116.584359 95 3104ft 125kts
02-Oct-17 18:54 33.899402 -116.547163 139 2140ft 123kts
02-Oct-17 18:55 33.871930 -116.522800 152 1382ft 115kts
02-Oct-17 18:56 33.844931 -116.502038 144 1351ft 118kts
02-Oct-17 18:57 33.821206 -116.482807 176 1058ft 77kts
02-Oct-17 18:58 33.819410 -116.498475 325 582ft 58kts
02-Oct-17 18:59 33.827944 -116.506108 323 480ft 24kts
02-Oct-17 19:00 33.827277 -116.507219 178 480ft 7kts
02-Oct-17 19:01 33.825354 -116.508268 273 480ft 10kts
02-Oct-17 19:02 33.826291 -116.509031 1 480ft 1kts
02-Oct-17 19:03 33.826483 -116.509364 271 480ft 0kts
02-Oct-17 19:04 33.826483 -116.509364 271 480ft 0kts

Navigation Log

Ident Type
1. L70 Airport
2. KPSP Airport